sensor_id;sensor_type;location;lat;lon;timestamp;P1;durP1;ratioP1;P2;durP2;ratioP2
19396;SDS011;9834;48.076;11.878;2024-01-27T00:02:18;2.20;;;1.07;;
19396;SDS011;9834;48.076;11.878;2024-01-27T00:04:46;2.23;;;1.67;;
19396;SDS011;9834;48.076;11.878;2024-01-27T00:07:13;1.37;;;1.10;;
19396;SDS011;9834;48.076;11.878;2024-01-27T00:09:45;1.40;;;1.30;;
19396;SDS011;9834;48.076;11.878;2024-01-27T00:12:12;2.13;;;1.03;;
19396;SDS011;9834;48.076;11.878;2024-01-27T00:14:42;1.00;;;0.90;;
19396;SDS011;9834;48.076;11.878;2024-01-27T00:17:10;1.53;;;1.23;;
19396;SDS011;9834;48.076;11.878;2024-01-27T00:19:38;0.83;;;0.80;;
19396;SDS011;9834;48.076;11.878;2024-01-27T00:22:07;2.07;;;1.20;;
19396;SDS011;9834;48.076;11.878;2024-01-27T00:24:39;3.73;;;1.20;;
19396;SDS011;9834;48.076;11.878;2024-01-27T00:27:11;2.80;;;1.27;;
19396;SDS011;9834;48.076;11.878;2024-01-27T00:29:42;2.77;;;1.57;;
19396;SDS011;9834;48.076;11.878;2024-01-27T00:32:10;3.87;;;1.93;;
19396;SDS011;9834;48.076;11.878;2024-01-27T00:34:38;5.27;;;2.40;;
19396;SDS011;9834;48.076;11.878;2024-01-27T00:37:07;5.53;;;2.00;;
19396;SDS011;9834;48.076;11.878;2024-01-27T00:39:37;1.53;;;1.00;;
19396;SDS011;9834;48.076;11.878;2024-01-27T00:42:09;1.70;;;0.77;;
19396;SDS011;9834;48.076;11.878;2024-01-27T00:44:39;1.20;;;0.93;;
19396;SDS011;9834;48.076;11.878;2024-01-27T00:47:06;4.43;;;1.20;;
19396;SDS011;9834;48.076;11.878;2024-01-27T00:49:35;1.33;;;1.03;;
19396;SDS011;9834;48.076;11.878;2024-01-27T00:52:02;2.63;;;0.90;;
19396;SDS011;9834;48.076;11.878;2024-01-27T00:54:30;1.40;;;1.17;;
19396;SDS011;9834;48.076;11.878;2024-01-27T00:56:57;7.27;;;1.27;;
19396;SDS011;9834;48.076;11.878;2024-01-27T00:59:26;2.13;;;0.93;;
19396;SDS011;9834;48.076;11.878;2024-01-27T01:01:55;1.33;;;1.07;;
19396;SDS011;9834;48.076;11.878;2024-01-27T01:04:24;2.67;;;1.10;;
19396;SDS011;9834;48.076;11.878;2024-01-27T01:07:01;1.33;;;0.80;;
19396;SDS011;9834;48.076;11.878;2024-01-27T01:09:32;1.40;;;1.10;;
19396;SDS011;9834;48.076;11.878;2024-01-27T01:12:06;3.10;;;1.27;;
19396;SDS011;9834;48.076;11.878;2024-01-27T01:14:36;4.17;;;0.87;;
19396;SDS011;9834;48.076;11.878;2024-01-27T01:17:07;1.30;;;1.03;;
19396;SDS011;9834;48.076;11.878;2024-01-27T01:19:35;1.93;;;1.13;;
19396;SDS011;9834;48.076;11.878;2024-01-27T01:22:05;1.27;;;0.90;;
19396;SDS011;9834;48.076;11.878;2024-01-27T01:24:53;0.80;;;0.77;;
19396;SDS011;9834;48.076;11.878;2024-01-27T01:27:23;1.27;;;1.07;;
19396;SDS011;9834;48.076;11.878;2024-01-27T01:29:53;0.80;;;0.80;;
19396;SDS011;9834;48.076;11.878;2024-01-27T01:32:20;1.07;;;0.97;;
19396;SDS011;9834;48.076;11.878;2024-01-27T01:34:47;1.60;;;1.40;;
19396;SDS011;9834;48.076;11.878;2024-01-27T01:37:20;1.67;;;1.57;;
19396;SDS011;9834;48.076;11.878;2024-01-27T01:39:52;2.20;;;1.20;;
19396;SDS011;9834;48.076;11.878;2024-01-27T01:42:22;1.13;;;1.03;;
19396;SDS011;9834;48.076;11.878;2024-01-27T01:44:54;1.10;;;1.00;;
19396;SDS011;9834;48.076;11.878;2024-01-27T01:47:24;3.60;;;1.17;;
19396;SDS011;9834;48.076;11.878;2024-01-27T01:50:05;1.57;;;1.00;;
19396;SDS011;9834;48.076;11.878;2024-01-27T01:52:38;1.63;;;1.17;;
19396;SDS011;9834;48.076;11.878;2024-01-27T01:55:06;1.70;;;1.03;;
19396;SDS011;9834;48.076;11.878;2024-01-27T01:57:38;2.93;;;1.50;;
19396;SDS011;9834;48.076;11.878;2024-01-27T02:00:08;1.30;;;1.20;;
19396;SDS011;9834;48.076;11.878;2024-01-27T02:02:42;1.30;;;0.77;;
19396;SDS011;9834;48.076;11.878;2024-01-27T02:05:11;4.13;;;1.23;;
19396;SDS011;9834;48.076;11.878;2024-01-27T02:07:39;5.50;;;1.97;;
19396;SDS011;9834;48.076;11.878;2024-01-27T02:10:13;4.23;;;1.27;;
19396;SDS011;9834;48.076;11.878;2024-01-27T02:12:43;1.47;;;1.37;;
19396;SDS011;9834;48.076;11.878;2024-01-27T02:15:14;1.67;;;1.30;;
19396;SDS011;9834;48.076;11.878;2024-01-27T02:17:44;3.70;;;1.43;;
19396;SDS011;9834;48.076;11.878;2024-01-27T02:20:14;1.70;;;1.20;;
19396;SDS011;9834;48.076;11.878;2024-01-27T02:22:45;2.00;;;1.27;;
19396;SDS011;9834;48.076;11.878;2024-01-27T02:25:17;2.30;;;1.43;;
19396;SDS011;9834;48.076;11.878;2024-01-27T02:27:45;2.93;;;1.03;;
19396;SDS011;9834;48.076;11.878;2024-01-27T02:30:18;3.27;;;1.53;;
19396;SDS011;9834;48.076;11.878;2024-01-27T02:32:45;2.83;;;1.37;;
19396;SDS011;9834;48.076;11.878;2024-01-27T02:35:14;3.47;;;1.60;;
19396;SDS011;9834;48.076;11.878;2024-01-27T02:37:42;1.40;;;1.00;;
19396;SDS011;9834;48.076;11.878;2024-01-27T02:40:10;1.20;;;0.57;;
19396;SDS011;9834;48.076;11.878;2024-01-27T02:42:43;2.13;;;0.90;;
19396;SDS011;9834;48.076;11.878;2024-01-27T02:45:11;2.73;;;1.40;;
19396;SDS011;9834;48.076;11.878;2024-01-27T02:47:39;3.17;;;1.67;;
19396;SDS011;9834;48.076;11.878;2024-01-27T02:50:09;3.23;;;1.20;;
19396;SDS011;9834;48.076;11.878;2024-01-27T02:52:37;1.80;;;1.10;;
19396;SDS011;9834;48.076;11.878;2024-01-27T02:55:08;1.77;;;1.60;;
19396;SDS011;9834;48.076;11.878;2024-01-27T02:57:45;3.27;;;0.97;;
19396;SDS011;9834;48.076;11.878;2024-01-27T03:00:13;1.87;;;1.17;;
19396;SDS011;9834;48.076;11.878;2024-01-27T03:02:42;2.33;;;1.40;;
19396;SDS011;9834;48.076;11.878;2024-01-27T03:05:09;1.30;;;1.20;;
19396;SDS011;9834;48.076;11.878;2024-01-27T03:07:39;2.47;;;0.77;;
19396;SDS011;9834;48.076;11.878;2024-01-27T03:10:09;3.40;;;1.47;;
19396;SDS011;9834;48.076;11.878;2024-01-27T03:12:37;1.27;;;1.00;;
19396;SDS011;9834;48.076;11.878;2024-01-27T03:15:09;2.77;;;1.13;;
19396;SDS011;9834;48.076;11.878;2024-01-27T03:17:39;0.97;;;0.97;;
19396;SDS011;9834;48.076;11.878;2024-01-27T03:20:07;1.40;;;1.30;;
19396;SDS011;9834;48.076;11.878;2024-01-27T03:22:38;2.27;;;1.47;;
19396;SDS011;9834;48.076;11.878;2024-01-27T03:25:07;1.83;;;1.20;;
19396;SDS011;9834;48.076;11.878;2024-01-27T03:27:35;1.20;;;1.00;;
19396;SDS011;9834;48.076;11.878;2024-01-27T03:30:02;1.70;;;0.90;;
19396;SDS011;9834;48.076;11.878;2024-01-27T03:32:32;2.23;;;1.20;;
19396;SDS011;9834;48.076;11.878;2024-01-27T03:35:00;2.93;;;1.60;;
19396;SDS011;9834;48.076;11.878;2024-01-27T03:37:27;1.37;;;1.27;;
19396;SDS011;9834;48.076;11.878;2024-01-27T03:39:55;3.93;;;0.90;;
19396;SDS011;9834;48.076;11.878;2024-01-27T03:42:22;1.43;;;1.20;;
19396;SDS011;9834;48.076;11.878;2024-01-27T03:44:50;1.77;;;1.37;;
19396;SDS011;9834;48.076;11.878;2024-01-27T03:47:18;1.17;;;1.07;;
19396;SDS011;9834;48.076;11.878;2024-01-27T03:49:49;3.90;;;1.23;;
19396;SDS011;9834;48.076;11.878;2024-01-27T03:52:16;3.80;;;1.57;;
19396;SDS011;9834;48.076;11.878;2024-01-27T03:54:43;1.60;;;1.47;;
19396;SDS011;9834;48.076;11.878;2024-01-27T03:57:13;1.23;;;1.13;;
19396;SDS011;9834;48.076;11.878;2024-01-27T03:59:40;0.87;;;0.87;;
19396;SDS011;9834;48.076;11.878;2024-01-27T04:02:08;1.23;;;1.00;;
19396;SDS011;9834;48.076;11.878;2024-01-27T04:04:36;4.27;;;1.23;;
19396;SDS011;9834;48.076;11.878;2024-01-27T04:07:06;1.07;;;0.90;;
19396;SDS011;9834;48.076;11.878;2024-01-27T04:09:38;1.97;;;1.30;;
19396;SDS011;9834;48.076;11.878;2024-01-27T04:12:05;2.10;;;1.20;;
19396;SDS011;9834;48.076;11.878;2024-01-27T04:14:33;1.60;;;0.80;;
19396;SDS011;9834;48.076;11.878;2024-01-27T04:17:01;3.40;;;1.50;;
19396;SDS011;9834;48.076;11.878;2024-01-27T04:19:29;1.50;;;1.40;;
19396;SDS011;9834;48.076;11.878;2024-01-27T04:21:56;2.17;;;1.27;;
19396;SDS011;9834;48.076;11.878;2024-01-27T04:24:25;2.33;;;1.30;;
19396;SDS011;9834;48.076;11.878;2024-01-27T04:26:52;0.90;;;0.83;;
19396;SDS011;9834;48.076;11.878;2024-01-27T04:29:23;1.07;;;0.97;;
19396;SDS011;9834;48.076;11.878;2024-01-27T04:31:51;2.07;;;1.13;;
19396;SDS011;9834;48.076;11.878;2024-01-27T04:34:22;1.30;;;0.97;;
19396;SDS011;9834;48.076;11.878;2024-01-27T04:36:49;1.57;;;1.23;;
19396;SDS011;9834;48.076;11.878;2024-01-27T04:39:17;1.73;;;1.20;;
19396;SDS011;9834;48.076;11.878;2024-01-27T04:41:46;1.23;;;1.10;;
19396;SDS011;9834;48.076;11.878;2024-01-27T04:44:13;2.77;;;1.57;;
19396;SDS011;9834;48.076;11.878;2024-01-27T04:46:41;1.50;;;1.07;;
19396;SDS011;9834;48.076;11.878;2024-01-27T04:49:08;7.00;;;1.90;;
19396;SDS011;9834;48.076;11.878;2024-01-27T04:51:37;4.20;;;1.13;;
19396;SDS011;9834;48.076;11.878;2024-01-27T04:54:05;4.63;;;1.73;;
19396;SDS011;9834;48.076;11.878;2024-01-27T04:56:33;1.67;;;1.13;;
19396;SDS011;9834;48.076;11.878;2024-01-27T04:59:01;1.23;;;0.97;;
19396;SDS011;9834;48.076;11.878;2024-01-27T05:01:30;1.50;;;1.30;;
19396;SDS011;9834;48.076;11.878;2024-01-27T05:04:00;2.07;;;0.93;;
19396;SDS011;9834;48.076;11.878;2024-01-27T05:06:27;2.40;;;1.23;;
19396;SDS011;9834;48.076;11.878;2024-01-27T05:08:55;2.37;;;0.87;;
19396;SDS011;9834;48.076;11.878;2024-01-27T05:11:28;2.70;;;1.70;;
19396;SDS011;9834;48.076;11.878;2024-01-27T05:13:58;1.73;;;1.40;;
19396;SDS011;9834;48.076;11.878;2024-01-27T05:16:27;1.50;;;1.17;;
19396;SDS011;9834;48.076;11.878;2024-01-27T05:18:56;1.67;;;1.00;;
19396;SDS011;9834;48.076;11.878;2024-01-27T05:21:22;1.73;;;1.23;;
19396;SDS011;9834;48.076;11.878;2024-01-27T05:23:53;1.30;;;0.80;;
19396;SDS011;9834;48.076;11.878;2024-01-27T05:26:20;6.23;;;1.47;;
19396;SDS011;9834;48.076;11.878;2024-01-27T05:28:48;3.97;;;1.77;;
19396;SDS011;9834;48.076;11.878;2024-01-27T05:31:23;0.70;;;0.70;;
19396;SDS011;9834;48.076;11.878;2024-01-27T05:33:53;2.37;;;1.57;;
19396;SDS011;9834;48.076;11.878;2024-01-27T05:36:26;2.23;;;1.63;;
19396;SDS011;9834;48.076;11.878;2024-01-27T05:38:53;1.10;;;1.00;;
19396;SDS011;9834;48.076;11.878;2024-01-27T05:41:25;1.40;;;1.30;;
19396;SDS011;9834;48.076;11.878;2024-01-27T05:43:54;2.60;;;1.30;;
19396;SDS011;9834;48.076;11.878;2024-01-27T05:46:23;1.30;;;1.00;;
19396;SDS011;9834;48.076;11.878;2024-01-27T05:48:53;1.70;;;1.20;;
19396;SDS011;9834;48.076;11.878;2024-01-27T05:51:26;1.40;;;1.07;;
19396;SDS011;9834;48.076;11.878;2024-01-27T05:53:56;2.73;;;1.13;;
19396;SDS011;9834;48.076;11.878;2024-01-27T05:56:23;1.63;;;1.20;;
19396;SDS011;9834;48.076;11.878;2024-01-27T05:58:50;4.50;;;2.10;;
19396;SDS011;9834;48.076;11.878;2024-01-27T06:01:19;4.57;;;1.70;;
19396;SDS011;9834;48.076;11.878;2024-01-27T06:03:46;2.87;;;1.90;;
19396;SDS011;9834;48.076;11.878;2024-01-27T06:06:15;1.80;;;1.03;;
19396;SDS011;9834;48.076;11.878;2024-01-27T06:08:45;7.57;;;1.30;;
19396;SDS011;9834;48.076;11.878;2024-01-27T06:11:14;4.30;;;2.03;;
19396;SDS011;9834;48.076;11.878;2024-01-27T06:13:49;2.30;;;1.40;;
19396;SDS011;9834;48.076;11.878;2024-01-27T06:16:22;1.40;;;1.07;;
19396;SDS011;9834;48.076;11.878;2024-01-27T06:18:51;4.10;;;1.27;;
19396;SDS011;9834;48.076;11.878;2024-01-27T06:21:21;3.13;;;1.60;;
19396;SDS011;9834;48.076;11.878;2024-01-27T06:23:48;1.67;;;1.50;;
19396;SDS011;9834;48.076;11.878;2024-01-27T06:26:15;1.50;;;1.20;;
19396;SDS011;9834;48.076;11.878;2024-01-27T06:28:42;1.60;;;1.07;;
19396;SDS011;9834;48.076;11.878;2024-01-27T06:31:11;2.77;;;1.60;;
19396;SDS011;9834;48.076;11.878;2024-01-27T06:33:40;2.20;;;1.47;;
19396;SDS011;9834;48.076;11.878;2024-01-27T06:36:09;3.50;;;2.07;;
19396;SDS011;9834;48.076;11.878;2024-01-27T06:38:43;1.73;;;1.37;;
19396;SDS011;9834;48.076;11.878;2024-01-27T06:41:11;3.97;;;1.80;;
19396;SDS011;9834;48.076;11.878;2024-01-27T06:43:39;2.83;;;1.60;;
19396;SDS011;9834;48.076;11.878;2024-01-27T06:46:05;2.90;;;1.87;;
19396;SDS011;9834;48.076;11.878;2024-01-27T06:48:33;2.77;;;2.17;;
19396;SDS011;9834;48.076;11.878;2024-01-27T06:51:00;10.20;;;5.10;;
19396;SDS011;9834;48.076;11.878;2024-01-27T06:53:30;13.57;;;6.40;;
19396;SDS011;9834;48.076;11.878;2024-01-27T06:56:03;13.97;;;6.80;;
19396;SDS011;9834;48.076;11.878;2024-01-27T06:58:31;10.70;;;6.33;;
19396;SDS011;9834;48.076;11.878;2024-01-27T07:01:00;5.63;;;4.63;;
19396;SDS011;9834;48.076;11.878;2024-01-27T07:03:29;5.87;;;3.07;;
19396;SDS011;9834;48.076;11.878;2024-01-27T07:05:56;3.57;;;2.47;;
19396;SDS011;9834;48.076;11.878;2024-01-27T07:08:26;4.10;;;2.03;;
19396;SDS011;9834;48.076;11.878;2024-01-27T07:10:54;4.13;;;1.83;;
19396;SDS011;9834;48.076;11.878;2024-01-27T07:13:23;3.80;;;2.20;;
19396;SDS011;9834;48.076;11.878;2024-01-27T07:15:51;3.37;;;2.13;;
19396;SDS011;9834;48.076;11.878;2024-01-27T07:18:18;3.00;;;1.70;;
19396;SDS011;9834;48.076;11.878;2024-01-27T07:20:46;1.73;;;1.57;;
19396;SDS011;9834;48.076;11.878;2024-01-27T07:23:14;5.23;;;1.33;;
19396;SDS011;9834;48.076;11.878;2024-01-27T07:25:43;2.03;;;1.50;;
19396;SDS011;9834;48.076;11.878;2024-01-27T07:28:10;4.60;;;1.93;;
19396;SDS011;9834;48.076;11.878;2024-01-27T07:30:42;3.13;;;1.77;;
19396;SDS011;9834;48.076;11.878;2024-01-27T07:33:09;3.17;;;1.53;;
19396;SDS011;9834;48.076;11.878;2024-01-27T07:35:37;5.00;;;2.90;;
19396;SDS011;9834;48.076;11.878;2024-01-27T07:38:04;2.33;;;1.90;;
19396;SDS011;9834;48.076;11.878;2024-01-27T07:40:39;2.23;;;1.60;;
19396;SDS011;9834;48.076;11.878;2024-01-27T07:43:07;4.70;;;2.03;;
19396;SDS011;9834;48.076;11.878;2024-01-27T07:45:34;7.30;;;4.27;;
19396;SDS011;9834;48.076;11.878;2024-01-27T07:48:03;33.60;;;11.90;;
19396;SDS011;9834;48.076;11.878;2024-01-27T07:50:31;15.33;;;7.20;;
19396;SDS011;9834;48.076;11.878;2024-01-27T07:52:58;11.17;;;5.33;;
19396;SDS011;9834;48.076;11.878;2024-01-27T07:55:26;13.70;;;5.80;;
19396;SDS011;9834;48.076;11.878;2024-01-27T07:58:02;5.73;;;2.30;;
19396;SDS011;9834;48.076;11.878;2024-01-27T08:00:30;2.80;;;1.83;;
19396;SDS011;9834;48.076;11.878;2024-01-27T08:02:58;2.13;;;1.90;;
19396;SDS011;9834;48.076;11.878;2024-01-27T08:05:28;4.13;;;2.30;;
19396;SDS011;9834;48.076;11.878;2024-01-27T08:07:56;6.77;;;2.43;;
19396;SDS011;9834;48.076;11.878;2024-01-27T08:10:23;2.20;;;1.67;;
19396;SDS011;9834;48.076;11.878;2024-01-27T08:12:50;2.70;;;1.87;;
19396;SDS011;9834;48.076;11.878;2024-01-27T08:15:22;2.97;;;1.80;;
19396;SDS011;9834;48.076;11.878;2024-01-27T08:17:49;3.37;;;1.90;;
19396;SDS011;9834;48.076;11.878;2024-01-27T08:20:16;4.57;;;2.23;;
19396;SDS011;9834;48.076;11.878;2024-01-27T08:22:45;3.90;;;1.60;;
19396;SDS011;9834;48.076;11.878;2024-01-27T08:25:16;4.27;;;2.13;;
19396;SDS011;9834;48.076;11.878;2024-01-27T08:27:43;2.87;;;2.30;;
19396;SDS011;9834;48.076;11.878;2024-01-27T08:30:12;3.83;;;2.40;;
19396;SDS011;9834;48.076;11.878;2024-01-27T08:32:39;3.30;;;1.90;;
19396;SDS011;9834;48.076;11.878;2024-01-27T08:35:07;7.67;;;2.63;;
19396;SDS011;9834;48.076;11.878;2024-01-27T08:37:35;3.77;;;2.97;;
19396;SDS011;9834;48.076;11.878;2024-01-27T08:40:06;10.97;;;2.70;;
19396;SDS011;9834;48.076;11.878;2024-01-27T08:42:37;8.77;;;3.63;;
19396;SDS011;9834;48.076;11.878;2024-01-27T08:45:06;3.27;;;2.40;;
19396;SDS011;9834;48.076;11.878;2024-01-27T08:47:33;6.47;;;2.33;;
19396;SDS011;9834;48.076;11.878;2024-01-27T08:50:03;2.97;;;1.93;;
19396;SDS011;9834;48.076;11.878;2024-01-27T08:52:32;6.27;;;2.37;;
19396;SDS011;9834;48.076;11.878;2024-01-27T08:54:59;4.27;;;2.63;;
19396;SDS011;9834;48.076;11.878;2024-01-27T08:57:29;3.53;;;2.40;;
19396;SDS011;9834;48.076;11.878;2024-01-27T08:59:57;3.57;;;2.37;;
19396;SDS011;9834;48.076;11.878;2024-01-27T09:02:24;8.80;;;2.47;;
19396;SDS011;9834;48.076;11.878;2024-01-27T09:04:51;3.07;;;2.17;;
19396;SDS011;9834;48.076;11.878;2024-01-27T09:07:21;3.70;;;2.10;;
19396;SDS011;9834;48.076;11.878;2024-01-27T09:09:50;5.60;;;2.50;;
19396;SDS011;9834;48.076;11.878;2024-01-27T09:12:17;4.73;;;3.03;;
19396;SDS011;9834;48.076;11.878;2024-01-27T09:14:49;10.80;;;3.40;;
19396;SDS011;9834;48.076;11.878;2024-01-27T09:17:16;6.17;;;3.43;;
19396;SDS011;9834;48.076;11.878;2024-01-27T09:19:44;9.40;;;3.43;;
19396;SDS011;9834;48.076;11.878;2024-01-27T09:22:11;6.90;;;3.90;;
19396;SDS011;9834;48.076;11.878;2024-01-27T09:24:39;6.03;;;2.97;;
19396;SDS011;9834;48.076;11.878;2024-01-27T09:27:06;8.53;;;4.03;;
19396;SDS011;9834;48.076;11.878;2024-01-27T09:29:33;6.07;;;3.23;;
19396;SDS011;9834;48.076;11.878;2024-01-27T09:32:01;8.63;;;3.53;;
19396;SDS011;9834;48.076;11.878;2024-01-27T09:34:28;9.27;;;3.40;;
19396;SDS011;9834;48.076;11.878;2024-01-27T09:36:56;10.97;;;3.70;;
19396;SDS011;9834;48.076;11.878;2024-01-27T09:39:23;6.33;;;3.50;;
19396;SDS011;9834;48.076;11.878;2024-01-27T09:41:53;5.57;;;3.57;;
19396;SDS011;9834;48.076;11.878;2024-01-27T09:44:21;9.93;;;3.40;;
19396;SDS011;9834;48.076;11.878;2024-01-27T09:46:50;12.57;;;3.60;;
19396;SDS011;9834;48.076;11.878;2024-01-27T09:49:19;9.03;;;3.60;;
19396;SDS011;9834;48.076;11.878;2024-01-27T09:51:46;7.33;;;2.83;;
19396;SDS011;9834;48.076;11.878;2024-01-27T09:54:16;3.43;;;3.03;;
19396;SDS011;9834;48.076;11.878;2024-01-27T09:56:45;5.17;;;3.10;;
19396;SDS011;9834;48.076;11.878;2024-01-27T09:59:16;8.77;;;2.97;;
19396;SDS011;9834;48.076;11.878;2024-01-27T10:01:45;7.67;;;3.47;;
19396;SDS011;9834;48.076;11.878;2024-01-27T10:04:16;5.13;;;2.83;;
19396;SDS011;9834;48.076;11.878;2024-01-27T10:06:48;6.77;;;2.57;;
19396;SDS011;9834;48.076;11.878;2024-01-27T10:09:19;8.40;;;2.33;;
19396;SDS011;9834;48.076;11.878;2024-01-27T10:11:46;6.37;;;2.30;;
19396;SDS011;9834;48.076;11.878;2024-01-27T10:14:13;2.40;;;1.60;;
19396;SDS011;9834;48.076;11.878;2024-01-27T10:16:41;5.70;;;2.20;;
19396;SDS011;9834;48.076;11.878;2024-01-27T10:19:14;5.50;;;2.17;;
19396;SDS011;9834;48.076;11.878;2024-01-27T10:21:44;4.13;;;2.57;;
19396;SDS011;9834;48.076;11.878;2024-01-27T10:24:12;5.50;;;2.10;;
19396;SDS011;9834;48.076;11.878;2024-01-27T10:26:40;1.43;;;1.23;;
19396;SDS011;9834;48.076;11.878;2024-01-27T10:29:10;3.67;;;1.87;;
19396;SDS011;9834;48.076;11.878;2024-01-27T10:31:37;3.97;;;2.20;;
19396;SDS011;9834;48.076;11.878;2024-01-27T10:34:05;3.03;;;2.03;;
19396;SDS011;9834;48.076;11.878;2024-01-27T10:36:38;6.53;;;2.17;;
19396;SDS011;9834;48.076;11.878;2024-01-27T10:39:20;4.57;;;2.20;;
19396;SDS011;9834;48.076;11.878;2024-01-27T10:41:54;3.10;;;2.30;;
19396;SDS011;9834;48.076;11.878;2024-01-27T10:44:25;5.83;;;2.97;;
19396;SDS011;9834;48.076;11.878;2024-01-27T10:46:54;2.63;;;2.07;;
19396;SDS011;9834;48.076;11.878;2024-01-27T10:49:31;5.40;;;2.57;;
19396;SDS011;9834;48.076;11.878;2024-01-27T10:52:07;3.83;;;1.83;;
19396;SDS011;9834;48.076;11.878;2024-01-27T10:54:44;5.83;;;2.10;;
19396;SDS011;9834;48.076;11.878;2024-01-27T10:57:18;3.17;;;2.27;;
19396;SDS011;9834;48.076;11.878;2024-01-27T10:59:52;3.53;;;2.33;;
19396;SDS011;9834;48.076;11.878;2024-01-27T11:02:20;3.07;;;1.87;;
19396;SDS011;9834;48.076;11.878;2024-01-27T11:04:51;5.77;;;2.30;;
19396;SDS011;9834;48.076;11.878;2024-01-27T11:07:28;3.13;;;1.70;;
19396;SDS011;9834;48.076;11.878;2024-01-27T11:10:04;5.73;;;2.53;;
19396;SDS011;9834;48.076;11.878;2024-01-27T11:12:33;2.87;;;2.20;;
19396;SDS011;9834;48.076;11.878;2024-01-27T11:15:01;6.47;;;2.23;;
19396;SDS011;9834;48.076;11.878;2024-01-27T11:17:37;3.07;;;2.50;;
19396;SDS011;9834;48.076;11.878;2024-01-27T11:20:08;2.97;;;1.57;;
19396;SDS011;9834;48.076;11.878;2024-01-27T11:22:48;2.67;;;2.23;;
19396;SDS011;9834;48.076;11.878;2024-01-27T11:25:22;2.70;;;1.70;;
19396;SDS011;9834;48.076;11.878;2024-01-27T11:27:52;2.43;;;1.93;;
19396;SDS011;9834;48.076;11.878;2024-01-27T11:30:25;3.10;;;1.80;;
19396;SDS011;9834;48.076;11.878;2024-01-27T11:33:02;3.33;;;1.60;;
19396;SDS011;9834;48.076;11.878;2024-01-27T11:35:32;3.63;;;1.73;;
19396;SDS011;9834;48.076;11.878;2024-01-27T11:38:06;1.97;;;1.70;;
19396;SDS011;9834;48.076;11.878;2024-01-27T11:40:45;4.17;;;1.73;;
19396;SDS011;9834;48.076;11.878;2024-01-27T11:43:15;4.80;;;1.97;;
19396;SDS011;9834;48.076;11.878;2024-01-27T11:45:54;2.53;;;2.03;;
19396;SDS011;9834;48.076;11.878;2024-01-27T11:48:22;2.07;;;1.87;;
19396;SDS011;9834;48.076;11.878;2024-01-27T11:51:06;5.37;;;2.33;;
19396;SDS011;9834;48.076;11.878;2024-01-27T11:53:37;5.73;;;2.50;;
19396;SDS011;9834;48.076;11.878;2024-01-27T11:56:14;6.50;;;2.37;;
19396;SDS011;9834;48.076;11.878;2024-01-27T11:58:49;5.60;;;1.70;;
19396;SDS011;9834;48.076;11.878;2024-01-27T12:01:17;4.60;;;1.80;;
19396;SDS011;9834;48.076;11.878;2024-01-27T12:03:43;3.33;;;1.77;;
19396;SDS011;9834;48.076;11.878;2024-01-27T12:06:17;3.23;;;1.47;;
19396;SDS011;9834;48.076;11.878;2024-01-27T12:08:44;3.03;;;1.80;;
19396;SDS011;9834;48.076;11.878;2024-01-27T12:11:18;2.97;;;1.87;;
19396;SDS011;9834;48.076;11.878;2024-01-27T12:13:49;2.40;;;1.37;;
19396;SDS011;9834;48.076;11.878;2024-01-27T12:16:17;1.97;;;1.63;;
19396;SDS011;9834;48.076;11.878;2024-01-27T12:18:44;2.23;;;1.53;;
19396;SDS011;9834;48.076;11.878;2024-01-27T12:21:18;4.47;;;1.70;;
19396;SDS011;9834;48.076;11.878;2024-01-27T12:23:51;2.83;;;1.47;;
19396;SDS011;9834;48.076;11.878;2024-01-27T12:26:21;4.30;;;1.83;;
19396;SDS011;9834;48.076;11.878;2024-01-27T12:28:49;2.30;;;1.60;;
19396;SDS011;9834;48.076;11.878;2024-01-27T12:31:26;3.40;;;1.90;;
19396;SDS011;9834;48.076;11.878;2024-01-27T12:33:54;2.00;;;1.33;;
19396;SDS011;9834;48.076;11.878;2024-01-27T12:36:30;1.43;;;1.33;;
19396;SDS011;9834;48.076;11.878;2024-01-27T12:39:01;3.87;;;1.57;;
19396;SDS011;9834;48.076;11.878;2024-01-27T12:41:31;1.70;;;0.90;;
19396;SDS011;9834;48.076;11.878;2024-01-27T12:43:59;5.90;;;1.97;;
19396;SDS011;9834;48.076;11.878;2024-01-27T12:46:25;2.47;;;2.27;;
19396;SDS011;9834;48.076;11.878;2024-01-27T12:48:56;1.60;;;1.03;;
19396;SDS011;9834;48.076;11.878;2024-01-27T12:51:26;2.90;;;1.40;;
19396;SDS011;9834;48.076;11.878;2024-01-27T12:53:52;1.13;;;1.00;;
19396;SDS011;9834;48.076;11.878;2024-01-27T12:56:24;1.33;;;1.07;;
19396;SDS011;9834;48.076;11.878;2024-01-27T12:58:55;3.80;;;1.13;;
19396;SDS011;9834;48.076;11.878;2024-01-27T13:01:22;5.00;;;1.53;;
19396;SDS011;9834;48.076;11.878;2024-01-27T13:03:51;8.57;;;1.80;;
19396;SDS011;9834;48.076;11.878;2024-01-27T13:06:26;3.60;;;1.20;;
19396;SDS011;9834;48.076;11.878;2024-01-27T13:08:53;2.80;;;1.03;;
19396;SDS011;9834;48.076;11.878;2024-01-27T13:11:20;2.87;;;1.43;;
19396;SDS011;9834;48.076;11.878;2024-01-27T13:13:47;2.83;;;1.30;;
19396;SDS011;9834;48.076;11.878;2024-01-27T13:16:18;4.40;;;1.70;;
19396;SDS011;9834;48.076;11.878;2024-01-27T13:18:45;4.67;;;1.30;;
19396;SDS011;9834;48.076;11.878;2024-01-27T13:21:12;1.30;;;1.20;;
19396;SDS011;9834;48.076;11.878;2024-01-27T13:23:46;1.07;;;0.77;;
19396;SDS011;9834;48.076;11.878;2024-01-27T13:26:13;3.00;;;1.50;;
19396;SDS011;9834;48.076;11.878;2024-01-27T13:28:42;1.33;;;1.10;;
19396;SDS011;9834;48.076;11.878;2024-01-27T13:31:09;1.30;;;1.20;;
19396;SDS011;9834;48.076;11.878;2024-01-27T13:33:37;5.67;;;1.13;;
19396;SDS011;9834;48.076;11.878;2024-01-27T13:36:04;3.10;;;1.40;;
19396;SDS011;9834;48.076;11.878;2024-01-27T13:38:34;3.30;;;1.30;;
19396;SDS011;9834;48.076;11.878;2024-01-27T13:41:02;2.57;;;1.30;;
19396;SDS011;9834;48.076;11.878;2024-01-27T13:43:29;4.57;;;1.40;;
19396;SDS011;9834;48.076;11.878;2024-01-27T13:46:02;4.17;;;1.90;;
19396;SDS011;9834;48.076;11.878;2024-01-27T13:48:34;2.50;;;1.30;;
19396;SDS011;9834;48.076;11.878;2024-01-27T13:51:03;3.10;;;1.50;;
19396;SDS011;9834;48.076;11.878;2024-01-27T13:53:30;2.53;;;1.57;;
19396;SDS011;9834;48.076;11.878;2024-01-27T13:55:59;7.27;;;1.50;;
19396;SDS011;9834;48.076;11.878;2024-01-27T13:58:26;4.50;;;1.70;;
19396;SDS011;9834;48.076;11.878;2024-01-27T14:00:53;2.45;;;1.20;;
19396;SDS011;9834;48.076;11.878;2024-01-27T14:03:20;3.42;;;1.05;;
19396;SDS011;9834;48.076;11.878;2024-01-27T14:05:48;1.20;;;1.10;;
19396;SDS011;9834;48.076;11.878;2024-01-27T14:08:16;2.00;;;1.42;;
19396;SDS011;9834;48.076;11.878;2024-01-27T14:10:44;2.95;;;1.70;;
19396;SDS011;9834;48.076;11.878;2024-01-27T14:13:13;1.80;;;1.27;;
19396;SDS011;9834;48.076;11.878;2024-01-27T14:15:40;2.00;;;1.10;;
19396;SDS011;9834;48.076;11.878;2024-01-27T14:18:07;1.10;;;1.10;;
19396;SDS011;9834;48.076;11.878;2024-01-27T14:20:37;4.95;;;1.83;;
19396;SDS011;9834;48.076;11.878;2024-01-27T14:23:07;1.25;;;1.10;;
19396;SDS011;9834;48.076;11.878;2024-01-27T14:25:38;3.13;;;1.17;;
19396;SDS011;9834;48.076;11.878;2024-01-27T14:28:05;10.10;;;1.58;;
19396;SDS011;9834;48.076;11.878;2024-01-27T14:30:34;2.15;;;1.70;;
19396;SDS011;9834;48.076;11.878;2024-01-27T14:33:04;1.50;;;1.25;;
19396;SDS011;9834;48.076;11.878;2024-01-27T14:35:32;2.92;;;1.42;;
19396;SDS011;9834;48.076;11.878;2024-01-27T14:37:59;1.75;;;1.42;;
19396;SDS011;9834;48.076;11.878;2024-01-27T14:40:26;1.15;;;1.05;;
19396;SDS011;9834;48.076;11.878;2024-01-27T14:42:54;3.90;;;0.98;;
19396;SDS011;9834;48.076;11.878;2024-01-27T14:45:21;1.60;;;1.40;;
19396;SDS011;9834;48.076;11.878;2024-01-27T14:47:51;4.40;;;1.50;;
19396;SDS011;9834;48.076;11.878;2024-01-27T14:50:19;5.10;;;1.13;;
19396;SDS011;9834;48.076;11.878;2024-01-27T14:52:51;1.80;;;1.50;;
19396;SDS011;9834;48.076;11.878;2024-01-27T14:55:18;3.83;;;1.40;;
19396;SDS011;9834;48.076;11.878;2024-01-27T14:57:45;3.10;;;1.55;;
19396;SDS011;9834;48.076;11.878;2024-01-27T15:00:17;1.55;;;1.17;;
19396;SDS011;9834;48.076;11.878;2024-01-27T15:02:47;2.42;;;1.13;;